Time;durP1;ratioP1;P1;durP2;ratioP2;P2;SDS_P1;SDS_P2;PMS_P1;PMS_P2;Temp;Humidity;BMP_temperature;BMP_pressure;BME280_temperature;BME280_humidity;BME280_pressure;Samples;Min_cycle;Max_cycle;Signal;HPM_P1;HPM_P2
2022/11/18 00:01:23;;;;;;;6.50;2.60;;;;;;;7.81;95.85;99438.38;5136688;27;20023;-63
2022/11/18 00:03:50;;;;;;;8.20;2.60;;;;;;;7.79;95.42;99432.22;5136479;27;20027;-63
2022/11/18 00:06:21;;;;;;;6.93;2.92;;;;;;;7.77;95.60;99429.63;5136523;27;20038;-63
2022/11/18 00:08:47;;;;;;;5.25;2.72;;;;;;;7.78;95.45;99434.00;5136462;27;20023;-63
2022/11/18 00:14:17;;;;;;;9.63;2.90;;;;;;;7.78;95.97;99436.63;5136607;27;20384;-63
2022/11/18 00:14:18;;;;;;;6.53;2.60;;;;;;;7.77;95.61;99450.66;5136290;27;20031;-63
2022/11/18 00:16:51;;;;;;;7.05;2.65;;;;;;;7.78;96.05;99452.41;5136337;27;20042;-63
2022/11/18 00:19:18;;;;;;;7.82;2.90;;;;;;;7.78;95.71;99452.41;5136237;27;20024;-63
2022/11/18 00:21:43;;;;;;;6.88;2.90;;;;;;;7.77;96.15;99455.91;5136449;27;20031;-63
2022/11/18 00:24:09;;;;;;;8.65;2.80;;;;;;;7.77;95.99;99453.28;5135999;27;20480;-63
2022/11/18 00:26:35;;;;;;;7.13;2.83;;;;;;;7.78;96.15;99459.41;5136079;27;20011;-63
2022/11/18 00:29:01;;;;;;;9.02;2.65;;;;;;;7.78;96.52;99456.78;5136044;27;20023;-64
2022/11/18 00:31:26;;;;;;;7.88;2.70;;;;;;;7.78;96.16;99459.41;5135964;27;20031;-64
2022/11/18 00:33:52;;;;;;;6.28;3.00;;;;;;;7.76;95.96;99458.56;5135744;27;20051;-65
2022/11/18 00:36:17;;;;;;;8.48;3.10;;;;;;;7.77;96.33;99468.19;5135868;27;20027;-63
2022/11/18 00:38:43;;;;;;;8.82;2.70;;;;;;;7.79;95.64;99474.31;5135793;27;20027;-63
2022/11/18 00:41:14;;;;;;;8.60;2.60;;;;;;;7.76;95.73;99469.94;5135750;27;20106;-63
2022/11/18 00:43:40;;;;;;;7.55;2.75;;;;;;;7.77;95.57;99476.06;5135891;27;20384;-63
2022/11/18 00:46:08;;;;;;;8.07;2.95;;;;;;;7.80;96.03;99483.97;5135752;27;20030;-63
2022/11/18 00:48:34;;;;;;;6.63;2.58;;;;;;;7.81;95.93;99485.72;5135807;27;20384;-63
2022/11/18 00:51:13;;;;;;;7.03;2.72;;;;;;;7.81;96.54;99485.72;5135684;27;20499;-64
2022/11/18 00:53:38;;;;;;;7.28;2.83;;;;;;;7.82;96.88;99479.56;5135898;27;20038;-64
2022/11/18 00:56:04;;;;;;;6.95;2.50;;;;;;;7.83;97.15;99483.06;5135597;27;20027;-64
2022/11/18 00:58:30;;;;;;;6.97;2.45;;;;;;;7.85;96.69;99486.59;5135772;27;20418;-63
2022/11/18 01:00:55;;;;;;;5.68;2.60;;;;;;;7.84;97.12;99492.75;5133842;27;20460;-64
2022/11/18 01:03:20;;;;;;;6.95;2.50;;;;;;;7.84;96.54;99495.38;5135327;27;20019;-64
2022/11/18 01:05:47;;;;;;;5.68;2.60;;;;;;;7.85;97.34;99499.75;5135155;27;20050;-64
2022/11/18 01:08:13;;;;;;;8.70;2.78;;;;;;;7.84;97.24;99505.88;5135298;27;20023;-64
2022/11/18 01:10:39;;;;;;;9.63;2.83;;;;;;;7.85;97.43;99507.63;5135061;27;20098;-63
2022/11/18 01:13:18;;;;;;;8.25;3.10;;;;;;;7.85;97.17;99512.91;5135243;27;20035;-64
2022/11/18 01:15:57;;;;;;;6.22;2.80;;;;;;;7.85;97.14;99511.13;5135477;27;20137;-64
2022/11/18 01:18:25;;;;;;;7.80;2.80;;;;;;;7.86;96.46;99522.53;5133801;27;20019;-64
2022/11/18 01:20:51;;;;;;;11.68;2.72;;;;;;;7.84;96.60;99513.78;5135030;27;20447;-64
2022/11/18 01:23:18;;;;;;;6.55;2.83;;;;;;;7.82;96.63;99519.03;5133517;27;20548;-64
2022/11/18 01:25:45;;;;;;;6.18;2.72;;;;;;;7.77;97.14;99521.66;5135020;27;20561;-64
2022/11/18 01:28:12;;;;;;;8.23;2.65;;;;;;;7.78;97.09;99527.78;5134921;27;20019;-64
2022/11/18 01:30:39;;;;;;;6.22;2.75;;;;;;;7.77;97.61;99529.53;5134861;27;20099;-63
2022/11/18 01:33:06;;;;;;;9.43;2.70;;;;;;;7.78;96.39;99539.16;5134637;27;20047;-64
2022/11/18 01:35:39;;;;;;;6.65;2.55;;;;;;;7.82;97.60;99536.56;5134887;27;20380;-64
2022/11/18 01:38:05;;;;;;;7.03;2.40;;;;;;;7.81;96.48;99537.44;5133809;27;20022;-64
2022/11/18 01:40:32;;;;;;;6.85;2.92;;;;;;;7.81;97.08;99543.56;5133650;27;20061;-64
2022/11/18 01:42:58;;;;;;;7.53;3.03;;;;;;;7.84;97.53;99555.84;5134531;27;20019;-63
2022/11/18 01:45:37;;;;;;;6.18;2.50;;;;;;;7.84;97.44;99547.97;5134599;27;20463;-64
2022/11/18 01:48:09;;;;;;;8.50;3.00;;;;;;;7.86;97.75;99557.59;5133372;27;20114;-64
2022/11/18 01:50:37;;;;;;;7.55;2.55;;;;;;;7.85;97.21;99555.84;5134426;27;20041;-65
2022/11/18 01:53:08;;;;;;;6.80;2.88;;;;;;;7.87;97.20;99558.47;5134543;27;20034;-64
2022/11/18 01:55:40;;;;;;;9.38;2.70;;;;;;;7.88;97.59;99561.13;5134570;27;20074;-64
2022/11/18 01:58:32;;;;;;;6.20;2.65;;;;;;;7.90;97.87;99561.97;5134475;27;20038;-63
2022/11/18 02:00:59;;;;;;;6.30;2.80;;;;;;;7.91;97.06;99563.72;5134352;27;20527;-64
2022/11/18 02:03:24;;;;;;;7.25;2.80;;;;;;;7.93;97.83;99564.63;5134120;27;20110;-63
2022/11/18 02:05:51;;;;;;;5.30;2.60;;;;;;;7.94;97.39;99568.13;5134022;27;20051;-64
2022/11/18 02:08:18;;;;;;;5.25;2.50;;;;;;;7.94;97.89;99568.13;5134246;27;20023;-64
2022/11/18 02:10:43;;;;;;;6.30;2.58;;;;;;;7.96;97.31;99567.22;5133705;27;20030;-64
2022/11/18 02:13:09;;;;;;;7.35;2.50;;;;;;;7.97;97.12;99574.28;5133844;27;20031;-64
2022/11/18 02:16:19;;;;;;;5.80;2.70;;;;;;;8.00;97.82;99568.13;5134160;27;20027;-64
2022/11/18 02:18:59;;;;;;;4.60;2.40;;;;;;;8.00;97.97;99574.25;5134117;27;20495;-64
2022/11/18 02:21:40;;;;;;;5.15;2.55;;;;;;;8.02;97.52;99574.28;5132746;27;20079;-63
2022/11/18 02:24:26;;;;;;;4.13;2.58;;;;;;;8.02;97.54;99579.53;5133979;27;20436;-64
2022/11/18 02:27:15;;;;;;;7.43;2.63;;;;;;;8.04;97.44;99580.41;5134075;27;20560;-64
2022/11/18 02:29:54;;;;;;;8.40;2.63;;;;;;;8.06;97.87;99586.56;5134273;27;20103;-64
2022/11/18 02:32:32;;;;;;;5.22;2.60;;;;;;;8.07;98.37;99590.94;5133763;27;20130;-64
2022/11/18 02:35:21;;;;;;;7.72;2.90;;;;;;;8.08;98.05;99594.44;5132352;27;20019;-64
2022/11/18 02:38:03;;;;;;;5.15;2.60;;;;;;;8.11;98.17;99586.56;5133917;27;20031;-64
2022/11/18 02:41:14;;;;;;;5.18;2.55;;;;;;;8.14;97.98;99590.06;5133782;27;20038;-63
2022/11/18 02:43:46;;;;;;;6.93;2.53;;;;;;;8.16;97.85;99596.19;5129573;28;20100;-65
2022/11/18 02:46:16;;;;;;;6.55;2.60;;;;;;;8.18;97.90;99601.44;5133833;27;20549;-64
2022/11/18 02:48:47;;;;;;;7.80;2.50;;;;;;;8.19;97.84;99597.97;5132306;28;20023;-63
2022/11/18 02:51:17;;;;;;;4.85;2.72;;;;;;;8.22;97.90;99606.75;5133832;27;20019;-63
2022/11/18 02:53:45;;;;;;;7.15;2.80;;;;;;;8.24;97.71;99617.25;5133823;27;20495;-64
2022/11/18 02:56:12;;;;;;;7.72;2.50;;;;;;;8.26;97.62;99611.13;5133830;27;20027;-65
2022/11/18 02:58:37;;;;;;;7.80;2.65;;;;;;;8.28;98.73;99611.13;5133818;27;20388;-64
2022/11/18 03:01:03;;;;;;;7.40;2.70;;;;;;;8.27;98.07;99612.88;5133532;28;20039;-64
2022/11/18 03:03:34;;;;;;;10.75;2.55;;;;;;;8.28;98.47;99611.97;5133482;27;20024;-63
2022/11/18 03:06:18;;;;;;;7.55;2.42;;;;;;;8.32;98.10;99612.00;5133744;27;20019;-63
2022/11/18 03:08:51;;;;;;;4.75;2.47;;;;;;;8.33;98.52;99614.63;5133749;27;20027;-64
2022/11/18 03:11:21;;;;;;;5.13;2.50;;;;;;;8.35;97.86;99622.50;5133570;27;20413;-63
2022/11/18 03:14:09;;;;;;;7.00;2.40;;;;;;;8.35;98.50;99623.41;5133577;27;20023;-64
2022/11/18 03:17:00;;;;;;;6.75;2.60;;;;;;;8.36;98.03;99619.88;5133563;27;20054;-64
2022/11/18 03:19:44;;;;;;;6.20;2.38;;;;;;;8.39;98.81;99622.53;5133505;27;20354;-64
2022/11/18 03:22:48;;;;;;;5.05;2.33;;;;;;;8.42;98.50;99626.94;5133828;27;20038;-64
2022/11/18 03:25:22;;;;;;;9.05;3.03;;;;;;;8.44;98.19;99633.97;5053918;28;20036;-65
2022/11/18 03:27:55;;;;;;;9.57;2.65;;;;;;;8.44;98.35;99636.59;5124606;27;20484;-65
2022/11/18 03:30:23;;;;;;;5.82;2.83;;;;;;;8.49;98.35;99642.72;5137332;27;20484;-65
2022/11/18 03:33:13;;;;;;;6.90;2.70;;;;;;;8.49;98.97;99642.72;5137065;27;20096;-65
2022/11/18 03:35:45;;;;;;;5.20;2.58;;;;;;;8.47;98.82;99644.47;5127158;27;20377;-66
2022/11/18 03:38:15;;;;;;;8.43;2.80;;;;;;;8.47;99.06;99644.47;5137604;27;20376;-66
2022/11/18 03:40:47;;;;;;;5.88;2.67;;;;;;;8.49;99.09;99658.53;5137136;27;20096;-65
2022/11/18 03:43:18;;;;;;;5.93;2.80;;;;;;;8.50;98.93;99651.50;5137098;27;20115;-66
2022/11/18 03:45:47;;;;;;;8.75;2.97;;;;;;;8.50;99.30;99652.38;5137046;27;20023;-66
2022/11/18 03:48:18;;;;;;;8.80;3.00;;;;;;;8.47;99.34;99657.63;5136855;27;20055;-66
2022/11/18 03:51:13;;;;;;;6.50;2.58;;;;;;;8.50;99.55;99667.31;5135790;27;20061;-66
2022/11/18 03:53:44;;;;;;;8.25;3.03;;;;;;;8.51;99.55;99671.69;5136916;27;20042;-66
2022/11/18 03:56:13;;;;;;;6.05;2.88;;;;;;;8.48;99.49;99674.34;5136799;27;20034;-66
2022/11/18 03:59:24;;;;;;;12.80;2.78;;;;;;;8.48;99.35;99682.22;5136709;27;20019;-66
2022/11/18 04:02:00;;;;;;;7.50;2.83;;;;;;;8.45;99.71;99683.09;5128096;27;20034;-66
2022/11/18 04:04:26;;;;;;;6.05;2.80;;;;;;;8.46;99.58;99687.47;5136472;27;20495;-66
2022/11/18 04:07:04;;;;;;;8.50;2.63;;;;;;;8.46;99.57;99690.09;5136605;27;20023;-66
2022/11/18 04:09:37;;;;;;;5.93;2.60;;;;;;;8.47;99.75;99685.72;5136525;27;20026;-66
2022/11/18 04:12:05;;;;;;;;;;;;;;;8.49;99.35;99695.38;5136932;27;20072;-66
2022/11/18 04:14:34;;;;;;;4.97;2.75;;;;;;;8.45;99.76;99691.00;5135071;27;19989;-66
2022/11/18 04:17:07;;;;;;;9.65;3.00;;;;;;;8.43;99.61;99703.25;5136764;27;20441;-66
2022/11/18 04:19:33;;;;;;;8.32;3.00;;;;;;;8.43;99.52;99710.28;5135089;27;20034;-66
2022/11/18 04:21:58;;;;;;;6.93;2.90;;;;;;;8.40;99.90;99703.28;5136269;27;20031;-66
2022/11/18 04:24:23;;;;;;;7.30;3.08;;;;;;;8.41;99.53;99715.56;5134852;27;20096;-66
2022/11/18 04:26:49;;;;;;;7.95;3.35;;;;;;;8.38;100.00;99709.41;5136176;27;20030;-66
2022/11/18 04:29:14;;;;;;;8.40;3.20;;;;;;;8.39;99.65;99716.41;5136148;27;20024;-66
2022/11/18 04:31:39;;;;;;;7.03;3.15;;;;;;;8.38;100.00;99709.41;5117641;27;20031;-66
2022/11/18 04:34:05;;;;;;;9.57;3.00;;;;;;;8.34;100.00;99719.00;5135246;27;20416;-65
2022/11/18 04:36:30;;;;;;;11.10;3.45;;;;;;;8.30;100.00;99719.88;5135756;27;20102;-66
2022/11/18 04:38:55;;;;;;;6.97;3.00;;;;;;;8.29;100.00;99723.41;5136009;27;20023;-65
2022/11/18 04:41:54;;;;;;;8.18;3.45;;;;;;;8.30;99.65;99725.16;5135877;27;20495;-65
2022/11/18 04:44:11;;;;;;;8.27;3.22;;;;;;;8.25;100.00;99729.53;5135634;27;20035;-65
2022/11/18 04:46:40;;;;;;;9.32;3.47;;;;;;;8.21;99.75;99731.28;5136149;27;20147;-66
2022/11/18 04:49:07;;;;;;;8.55;3.30;;;;;;;8.18;99.35;99733.00;5135767;27;20023;-66
2022/11/18 04:51:32;;;;;;;8.48;3.42;;;;;;;8.12;99.87;99728.63;5135654;27;20062;-66
2022/11/18 04:53:58;;;;;;;6.55;3.20;;;;;;;8.05;99.93;99729.50;5134270;27;20055;-65
2022/11/18 04:56:23;;;;;;;8.05;3.60;;;;;;;8.07;99.68;99742.66;5135614;27;20031;-67
2022/11/18 04:58:48;;;;;;;6.68;3.08;;;;;;;8.04;99.45;99740.88;5135640;27;20114;-66
2022/11/18 05:01:14;;;;;;;9.43;3.30;;;;;;;7.99;100.00;99742.63;5135423;27;20507;-65
2022/11/18 05:03:39;;;;;;;8.88;3.10;;;;;;;7.96;100.00;99748.72;5135381;27;20110;-65
2022/11/18 05:06:05;;;;;;;8.68;3.20;;;;;;;7.92;100.00;99753.97;5134097;27;20072;-66
2022/11/18 05:08:30;;;;;;;9.52;2.95;;;;;;;7.88;99.98;99755.75;5135420;27;20510;-66
2022/11/18 05:12:47;;;;;;;6.15;3.00;;;;;;;7.87;99.97;99761.84;5135227;27;20030;-65
2022/11/18 05:13:41;;;;;;;8.90;3.67;;;;;;;7.87;100.00;99763.59;5135214;27;20035;-65
2022/11/18 05:16:07;;;;;;;10.30;3.53;;;;;;;7.85;100.00;99768.00;5135166;27;20023;-65
2022/11/18 05:18:32;;;;;;;6.95;3.50;;;;;;;7.81;100.00;99768.84;5135192;27;20039;-65
2022/11/18 05:20:57;;;;;;;8.13;3.83;;;;;;;7.69;100.00;99757.38;5135327;27;20033;-65
2022/11/18 05:23:23;;;;;;;11.32;3.60;;;;;;;7.77;100.00;99767.94;5134982;27;20496;-65
2022/11/18 05:25:48;;;;;;;5.82;3.20;;;;;;;7.73;100.00;99774.94;5135059;27;20124;-65
2022/11/18 05:28:13;;;;;;;7.18;3.30;;;;;;;7.71;100.00;99773.19;5134941;27;20031;-65
2022/11/18 05:30:39;;;;;;;8.05;3.42;;;;;;;7.73;100.00;99777.56;5134882;27;20019;-65
2022/11/18 05:33:04;;;;;;;7.25;3.30;;;;;;;7.71;100.00;99776.69;5134462;27;20051;-65
2022/11/18 05:35:29;;;;;;;8.10;3.13;;;;;;;7.73;99.75;99781.97;5134719;27;20035;-65
2022/11/18 05:37:55;;;;;;;7.20;3.75;;;;;;;7.72;99.53;99780.22;5134795;27;20019;-65
2022/11/18 05:40:20;;;;;;;7.65;3.40;;;;;;;7.70;99.86;99788.06;5134714;27;20442;-65
2022/11/18 05:45:29;;;;;;;8.10;3.42;;;;;;;7.65;99.47;99797.69;5134669;27;20073;-65
2022/11/18 05:48:03;;;;;;;7.80;3.03;;;;;;;7.60;99.76;99804.66;5134269;27;20411;-65
2022/11/18 05:50:29;;;;;;;7.93;3.45;;;;;;;7.58;100.00;99801.16;5134840;27;20031;-65
2022/11/18 05:52:54;;;;;;;7.30;3.53;;;;;;;7.58;100.00;99806.44;5134602;27;20043;-65
2022/11/18 05:55:24;;;;;;;7.97;3.53;;;;;;;7.58;99.74;99800.25;5134668;27;20019;-65
2022/11/18 05:57:50;;;;;;;5.28;3.05;;;;;;;7.58;100.00;99809.06;5134432;27;20053;-65
2022/11/18 06:00:16;;;;;;;11.82;3.65;;;;;;;7.55;100.00;99808.16;5134296;27;20473;-65
2022/11/18 06:02:44;;;;;;;10.27;3.30;;;;;;;7.50;100.00;99806.38;5134063;27;20050;-65
2022/11/18 06:05:11;;;;;;;9.52;3.70;;;;;;;7.47;99.91;99824.75;5134160;27;20058;-65
2022/11/18 06:07:44;;;;;;;6.95;3.40;;;;;;;7.43;100.00;99822.09;5134201;27;20047;-65
2022/11/18 06:10:15;;;;;;;6.78;3.45;;;;;;;7.43;100.00;99827.34;5134176;27;20020;-65
2022/11/18 06:12:44;;;;;;;7.32;3.38;;;;;;;7.42;100.00;99821.22;5134237;27;20050;-65
2022/11/18 06:15:17;;;;;;;6.38;3.58;;;;;;;7.43;100.00;99825.59;5132990;27;20026;-65
2022/11/18 06:17:47;;;;;;;;;;;;;;;7.47;100.00;99840.50;5134636;27;20031;-65
2022/11/18 06:20:13;;;;;;;7.82;3.35;;;;;;;7.42;100.00;99836.09;5134061;27;19907;-65
2022/11/18 06:22:39;;;;;;;7.85;3.28;;;;;;;7.40;100.00;99851.84;5133956;27;20151;-65
2022/11/18 06:25:04;;;;;;;6.60;3.63;;;;;;;7.39;100.00;99855.34;5133973;27;20110;-65
2022/11/18 06:27:30;;;;;;;9.40;3.70;;;;;;;7.37;100.00;99856.22;5133961;27;20476;-65
2022/11/18 06:29:55;;;;;;;6.78;3.70;;;;;;;7.35;100.00;99860.56;5133904;27;20034;-65
2022/11/18 06:32:21;;;;;;;9.27;3.88;;;;;;;7.34;100.00;99864.06;5133868;27;20025;-65
2022/11/18 06:34:46;;;;;;;7.63;3.50;;;;;;;7.33;100.00;99871.06;5133708;27;20476;-65
2022/11/18 06:37:16;;;;;;;7.30;3.80;;;;;;;7.31;100.00;99872.78;5133849;27;20023;-65
2022/11/18 06:39:42;;;;;;;9.10;3.72;;;;;;;7.29;100.00;99866.66;5133848;27;20027;-65
2022/11/18 06:42:07;;;;;;;10.32;4.07;;;;;;;7.28;100.00;99873.66;5133823;27;20041;-65
2022/11/18 06:44:33;;;;;;;8.85;4.13;;;;;;;7.28;100.00;99872.78;5133641;27;20051;-65
2022/11/18 06:46:58;;;;;;;7.50;3.80;;;;;;;7.28;100.00;99880.69;5134101;28;20174;-65
2022/11/18 06:49:25;;;;;;;7.65;3.92;;;;;;;7.27;100.00;99884.16;5133732;27;20447;-65
2022/11/18 06:51:51;;;;;;;7.13;4.50;;;;;;;7.26;100.00;99887.66;5133767;27;20440;-65
2022/11/18 06:54:16;;;;;;;10.15;4.60;;;;;;;7.24;100.00;99885.03;5133992;27;20052;-65
2022/11/18 06:56:42;;;;;;;10.52;4.43;;;;;;;7.20;100.00;99888.50;5133639;27;20019;-65
2022/11/18 06:59:07;;;;;;;7.13;3.95;;;;;;;7.20;100.00;99901.63;5137252;27;20476;-65
2022/11/18 07:01:38;;;;;;;8.63;4.07;;;;;;;7.17;100.00;99904.22;5137871;27;20020;-65
2022/11/18 07:04:03;;;;;;;10.25;4.18;;;;;;;7.18;100.00;99908.59;5137842;27;20076;-65
2022/11/18 07:06:31;;;;;;;11.32;4.55;;;;;;;7.20;100.00;99913.88;5137524;27;20027;-64
2022/11/18 07:09:03;;;;;;;10.50;3.95;;;;;;;7.19;100.00;99912.97;5137746;27;20034;-65
2022/11/18 07:11:29;;;;;;;11.40;4.10;;;;;;;7.20;100.00;99912.13;5137837;27;20019;-65
2022/11/18 07:13:54;;;;;;;8.52;3.90;;;;;;;7.24;100.00;99921.81;5137606;27;20113;-65
2022/11/18 07:16:22;;;;;;;7.90;4.00;;;;;;;7.23;100.00;99924.41;5137522;27;20023;-65
2022/11/18 07:18:49;;;;;;;10.20;3.70;;;;;;;7.24;100.00;99934.94;5137811;27;20357;-64
2022/11/18 07:21:18;;;;;;;14.63;4.20;;;;;;;7.26;100.00;99929.69;5137302;27;20036;-65
2022/11/18 07:23:44;;;;;;;9.70;4.25;;;;;;;7.28;100.00;99935.84;5137417;27;20058;-65
2022/11/18 07:26:10;;;;;;;8.65;4.10;;;;;;;7.28;100.00;99935.84;5137496;27;20045;-65
2022/11/18 07:28:35;;;;;;;8.93;3.75;;;;;;;7.29;100.00;99940.25;5137640;27;20016;-65
2022/11/18 07:31:07;;;;;;;7.75;3.97;;;;;;;7.31;100.00;99940.25;5137235;27;20037;-64
2022/11/18 07:33:33;;;;;;;9.35;4.20;;;;;;;7.30;100.00;99943.75;5137115;27;20047;-65
2022/11/18 07:36:04;;;;;;;10.00;3.80;;;;;;;7.29;100.00;99950.75;5137085;27;20031;-65
2022/11/18 07:38:29;;;;;;;6.97;3.75;;;;;;;7.29;100.00;99953.38;5137099;27;20031;-65
2022/11/18 07:41:05;;;;;;;13.55;3.90;;;;;;;7.30;100.00;99957.75;5137063;27;20033;-64
2022/11/18 07:43:32;;;;;;;7.80;3.90;;;;;;;7.35;100.00;99957.81;5135710;27;20476;-65
2022/11/18 07:45:57;;;;;;;7.50;3.83;;;;;;;7.45;100.00;99959.63;5137176;27;20046;-65
2022/11/18 07:48:22;;;;;;;9.13;4.00;;;;;;;7.54;100.00;99962.38;5136825;27;20476;-65
2022/11/18 07:50:48;;;;;;;8.85;4.18;;;;;;;7.57;99.61;99970.25;5136845;27;20019;-64
2022/11/18 07:53:13;;;;;;;10.63;3.63;;;;;;;7.61;99.45;99973.81;5136768;27;20024;-64
2022/11/18 07:55:38;;;;;;;7.32;3.78;;;;;;;7.62;98.83;99973.81;5136884;27;20366;-64
2022/11/18 07:58:04;;;;;;;8.30;3.97;;;;;;;7.64;99.21;99979.97;5136702;27;20035;-65
2022/11/18 08:00:29;;;;;;;7.90;3.80;;;;;;;7.75;99.13;99983.59;5136911;27;20031;-65
2022/11/18 08:02:55;;;;;;;10.98;3.90;;;;;;;7.91;98.61;99991.59;5136454;27;20023;-64
2022/11/18 08:05:20;;;;;;;10.95;3.97;;;;;;;8.06;98.33;99986.44;5136303;27;20113;-64
2022/11/18 08:07:45;;;;;;;9.40;3.65;;;;;;;8.22;97.95;99990.03;5136761;27;20154;-64
2022/11/18 08:10:11;;;;;;;8.82;3.70;;;;;;;8.38;96.35;99986.66;5135280;27;20361;-65
2022/11/18 08:12:36;;;;;;;10.07;3.75;;;;;;;8.57;96.02;99989.44;5136488;27;20107;-64
2022/11/18 08:15:01;;;;;;;8.23;3.40;;;;;;;8.75;94.45;99986.88;5136366;27;20031;-64
2022/11/18 08:17:27;;;;;;;10.38;3.65;;;;;;;8.83;93.50;99995.69;5136567;27;20536;-64
2022/11/18 08:19:52;;;;;;;9.65;3.65;;;;;;;8.96;92.20;99999.25;5136261;27;20023;-64
2022/11/18 08:22:19;;;;;;;8.10;3.50;;;;;;;9.05;92.00;100001.91;5135288;27;20381;-64
2022/11/18 08:24:46;;;;;;;6.07;3.50;;;;;;;9.17;91.60;100003.72;5136131;27;20035;-65
2022/11/18 08:27:12;;;;;;;7.32;3.47;;;;;;;9.03;90.27;100011.56;5136276;27;20075;-65
2022/11/18 08:29:37;;;;;;;8.98;3.40;;;;;;;8.80;90.68;100007.97;5136236;27;20117;-64
2022/11/18 08:32:04;;;;;;;11.00;3.55;;;;;;;8.72;91.34;100021.97;5134937;27;20065;-64
2022/11/18 08:34:29;;;;;;;11.20;3.58;;;;;;;8.58;91.55;100023.66;5135666;27;20051;-64
2022/11/18 08:36:54;;;;;;;11.63;4.00;;;;;;;8.45;91.97;100022.69;5136019;27;20488;-64
2022/11/18 08:39:20;;;;;;;10.45;3.72;;;;;;;8.38;92.42;100027.91;5136203;27;20032;-64
2022/11/18 08:41:46;;;;;;;8.75;3.78;;;;;;;8.64;93.77;100026.31;5135840;27;20536;-64
2022/11/18 08:44:15;;;;;;;8.27;4.00;;;;;;;9.09;91.73;100023.88;5135766;27;20492;-64
2022/11/18 08:46:41;;;;;;;9.25;3.60;;;;;;;9.43;89.25;100023.09;5135904;27;20023;-64
2022/11/18 08:49:07;;;;;;;10.75;3.85;;;;;;;9.84;89.01;100024.03;5135669;27;20380;-64
2022/11/18 08:51:32;;;;;;;7.50;3.50;;;;;;;10.15;85.84;100022.25;5135687;27;20034;-64
2022/11/18 08:53:57;;;;;;;7.47;3.40;;;;;;;10.15;85.10;100016.97;5135624;27;20135;-64
2022/11/18 08:56:24;;;;;;;6.22;3.40;;;;;;;10.29;84.58;100031.09;5135582;27;20026;-64
2022/11/18 08:58:50;;;;;;;10.02;3.40;;;;;;;10.45;82.02;100034.59;5135631;27;20034;-64
2022/11/18 09:01:15;;;;;;;8.38;3.28;;;;;;;10.20;83.05;100033.72;5135484;27;20023;-64
2022/11/18 09:03:41;;;;;;;5.90;3.30;;;;;;;9.87;83.79;100032.81;5135436;27;20519;-64
2022/11/18 09:06:12;;;;;;;8.63;3.50;;;;;;;9.69;85.66;100038.97;5135191;27;20038;-64
2022/11/18 09:08:38;;;;;;;8.52;3.53;;;;;;;9.52;86.22;100038.94;5134027;27;20352;-64
2022/11/18 09:11:06;;;;;;;9.57;3.70;;;;;;;9.43;86.46;100046.84;5135264;27;20019;-64
2022/11/18 09:13:31;;;;;;;10.00;3.70;;;;;;;9.33;87.19;100050.31;5135189;27;20534;-64
2022/11/18 09:15:58;;;;;;;8.85;3.47;;;;;;;9.31;87.91;100053.84;5135221;27;20023;-64
2022/11/18 09:18:23;;;;;;;15.05;3.40;;;;;;;9.30;87.64;100042.41;5135195;27;20429;-64
2022/11/18 09:21:03;;;;;;;7.22;3.55;;;;;;;9.47;88.51;100043.34;5135087;27;20107;-64
2022/11/18 09:23:30;;;;;;;9.25;3.60;;;;;;;10.05;87.48;100053.06;5135284;27;20023;-64
2022/11/18 09:26:06;;;;;;;9.82;3.60;;;;;;;10.57;84.59;100050.41;5134567;27;20051;-64
2022/11/18 09:28:31;;;;;;;6.60;3.30;;;;;;;10.88;83.97;100052.97;5135000;27;20035;-64
2022/11/18 09:30:57;;;;;;;10.70;3.83;;;;;;;11.04;82.60;100047.59;5134803;27;20019;-64
2022/11/18 09:33:23;;;;;;;10.52;3.45;;;;;;;11.38;83.02;100051.88;5134313;27;20058;-64
2022/11/18 09:35:48;;;;;;;6.97;3.13;;;;;;;11.43;79.65;100058.88;5134598;27;20096;-64
2022/11/18 09:38:14;;;;;;;4.90;3.20;;;;;;;11.29;79.97;100063.38;5134888;27;20495;-64
2022/11/18 09:41:03;;;;;;;9.07;3.30;;;;;;;11.43;81.51;100079.16;5134884;27;20369;-63
2022/11/18 09:43:53;;;;;;;10.50;3.70;;;;;;;11.64;80.52;100078.19;5134584;27;20066;-63
2022/11/18 09:46:52;;;;;;;8.80;3.40;;;;;;;11.73;80.42;100086.06;5134359;27;20034;-64
2022/11/18 09:49:27;;;;;;;13.77;3.75;;;;;;;11.86;79.37;100093.09;5134636;27;20054;-63
2022/11/18 09:51:54;;;;;;;10.50;3.60;;;;;;;12.07;79.41;100099.09;5134606;27;20034;-63
2022/11/18 09:54:23;;;;;;;8.68;3.33;;;;;;;12.12;79.15;100100.84;5134562;27;20027;-64
2022/11/18 09:56:50;;;;;;;7.13;3.03;;;;;;;12.05;77.63;100108.84;5134472;27;20066;-63
2022/11/18 09:59:18;;;;;;;6.50;3.10;;;;;;;11.72;75.51;100109.00;5134546;27;20034;-63
2022/11/18 10:01:45;;;;;;;7.78;3.42;;;;;;;11.38;77.08;100107.41;5132615;27;20011;-63
2022/11/18 10:04:20;;;;;;;7.38;3.10;;;;;;;11.26;79.10;100108.34;5134149;27;20020;-63
2022/11/18 10:06:47;;;;;;;7.47;3.20;;;;;;;11.16;80.10;100120.72;5134405;27;20119;-63
2022/11/18 10:09:34;;;;;;;9.32;3.30;;;;;;;11.05;80.29;100117.25;5134262;27;20058;-63
2022/11/18 10:12:35;;;;;;;6.97;2.90;;;;;;;11.04;81.16;100118.09;5134220;27;20034;-63
2022/11/18 10:15:06;;;;;;;7.15;3.15;;;;;;;11.08;80.87;100116.34;5132591;27;20038;-63
2022/11/18 10:17:47;;;;;;;10.50;3.10;;;;;;;11.05;80.61;100119.91;5134218;27;20027;-64
2022/11/18 10:20:24;;;;;;;8.73;3.15;;;;;;;11.00;81.19;100121.66;5133549;27;20308;-63
2022/11/18 10:23:01;;;;;;;11.02;3.17;;;;;;;10.96;81.05;100126.09;5134064;27;20034;-63
2022/11/18 10:25:27;;;;;;;7.80;3.42;;;;;;;10.97;80.63;100126.97;5134160;27;20380;-63
2022/11/18 10:27:55;;;;;;;7.20;3.25;;;;;;;10.95;80.90;100124.31;5134027;27;20041;-63
2022/11/18 10:30:25;;;;;;;9.63;3.30;;;;;;;11.04;81.92;100121.63;5133885;27;20061;-63
2022/11/18 10:32:58;;;;;;;9.60;3.20;;;;;;;11.16;80.88;100127.78;5133303;27;20027;-63
2022/11/18 10:35:36;;;;;;;10.65;3.38;;;;;;;11.26;80.65;100127.75;5132070;27;20043;-63
2022/11/18 10:38:04;;;;;;;11.10;3.03;;;;;;;11.49;79.76;100130.28;5134004;27;20031;-63
2022/11/18 10:40:32;;;;;;;7.93;3.40;;;;;;;11.55;79.38;100134.66;5134102;27;20011;-62
2022/11/18 10:42:58;;;;;;;11.50;3.45;;;;;;;11.48;79.52;100141.78;5133754;27;20030;-63
2022/11/18 10:45:30;;;;;;;10.05;3.20;;;;;;;11.44;78.83;100137.38;5133987;27;20023;-63
2022/11/18 10:47:58;;;;;;;7.65;2.90;;;;;;;11.38;79.50;100142.69;5133815;27;20103;-63
2022/11/18 10:50:29;;;;;;;9.75;3.00;;;;;;;11.31;79.75;100155.97;5133843;27;20043;-63
2022/11/18 10:52:55;;;;;;;10.43;3.13;;;;;;;11.21;80.06;100142.72;5134016;27;20027;-63
2022/11/18 10:55:23;;;;;;;9.80;3.20;;;;;;;11.18;79.88;100148.06;5133712;27;20606;-62
2022/11/18 10:58:00;;;;;;;9.95;2.83;;;;;;;11.09;79.19;100155.09;5133646;27;20386;-63
2022/11/18 11:00:48;;;;;;;7.85;2.80;;;;;;;11.00;80.35;100148.97;5133478;27;20062;-62
2022/11/18 11:03:20;;;;;;;9.70;2.97;;;;;;;10.96;79.60;100152.53;5133836;27;20076;-63
2022/11/18 11:05:45;;;;;;;6.47;2.80;;;;;;;10.90;80.24;100149.88;5133456;27;20182;-62
2022/11/18 11:08:20;;;;;;;7.47;2.90;;;;;;;10.78;80.55;100142.84;5133597;27;20520;-62
2022/11/18 11:10:54;;;;;;;8.32;2.58;;;;;;;10.81;81.22;100157.81;5133570;27;20015;-63
2022/11/18 11:13:22;;;;;;;6.63;2.67;;;;;;;10.84;80.65;100159.59;5131993;28;20080;-62
2022/11/18 11:15:51;;;;;;;8.15;2.83;;;;;;;10.87;81.52;100160.44;5133549;27;20022;-62
2022/11/18 11:18:42;;;;;;;8.55;3.05;;;;;;;10.87;80.62;100163.09;5133440;27;20019;-63
2022/11/18 11:21:14;;;;;;;6.55;2.80;;;;;;;10.92;81.61;100160.44;5133508;27;20019;-62
2022/11/18 11:23:41;;;;;;;8.93;2.80;;;;;;;10.96;81.35;100167.47;5133292;27;20027;-62
2022/11/18 11:26:18;;;;;;;9.50;3.10;;;;;;;11.03;81.35;100164.81;5133548;27;20515;-62
2022/11/18 11:29:15;;;;;;;8.77;3.17;;;;;;;11.07;81.30;100162.19;5133414;27;20023;-62
2022/11/18 11:31:53;;;;;;;11.25;3.17;;;;;;;11.04;81.02;100165.69;5130060;28;20455;-62
2022/11/18 11:34:36;;;;;;;10.38;3.60;;;;;;;11.03;80.82;100162.19;5131758;28;20047;-62
2022/11/18 11:37:02;;;;;;;9.13;3.28;;;;;;;11.11;81.78;100170.09;5133366;28;20038;-62
2022/11/18 11:40:00;;;;;;;6.55;2.90;;;;;;;11.14;80.38;100174.50;5132994;27;20027;-62
2022/11/18 11:42:39;;;;;;;11.18;2.67;;;;;;;11.07;80.51;100171.00;5133602;28;20123;-62
2022/11/18 11:45:32;;;;;;;8.45;2.70;;;;;;;11.11;80.30;100177.16;5136626;27;20034;-62
2022/11/18 11:48:12;;;;;;;;;;;;;;;11.13;81.15;100176.25;5137584;27;20035;-62
2022/11/18 11:50:53;;;;;;;11.68;3.30;;;;;;;11.12;80.51;100177.13;5136855;27;19914;-62
2022/11/18 11:53:24;;;;;;;8.35;3.58;;;;;;;11.14;80.99;100183.31;5135574;27;20357;-62